Pagina principale
METAR-TAF:

METAR-TAF

Aeroporti :

Digione, Francia

latitudine: 47-16N, longitudine: 005-05E, altezza: 222 m

Osservazione

Il bollettino è stato emesso 19 minuti fa, alle 03:00 UTC
Vento 3 kt da direzioni variabili
Temperature 9°C
Umidità 93%
Pressione 1027 hPa
Visibilità 10 km o più
Cielo coperto ad un'altezza di 1700 ft

METAR: LFSD 240300Z AUTO VRB03KT 9999 OVC017 09/08 Q1027

Ora: 04:19 (03:19 UTC)


TAF: mancante

Osservazioni e previsioni meteorologiche di più di 4000 aeroporti (messaggi METAR e TAF).

Le stazioni disponibili sono rappresentate dai dischi gialli e rossi sulla carta.

Puntare il mouse per vedere il nome della stazione.

Clicca sopra per visualizzare le osservazioni e previsioni meteorologiche.

Per cambiare la mappa : fare clic sui pulsanti verdi con una croce nera per ingrandire, il pulsante verde con un trattino per diminuire, o sulla freccia verde per le mappe adiacenti.


METAR-TAF: